sensor_id;sensor_type;location;lat;lon;timestamp;pressure;altitude;pressure_sealevel;temperature;humidity
1371;BME280;14306;49.942;11.570;2022-07-05T00:01:48;97760.50;;;19.35;51.30
1371;BME280;14306;49.942;11.570;2022-07-05T00:04:17;97763.44;;;19.42;51.17
1371;BME280;14306;49.942;11.570;2022-07-05T00:06:45;97760.56;;;19.39;51.18
1371;BME280;14306;49.942;11.570;2022-07-05T00:09:30;97756.66;;;19.40;51.17
1371;BME280;14306;49.942;11.570;2022-07-05T00:11:58;97762.28;;;19.43;51.47
1371;BME280;14306;49.942;11.570;2022-07-05T00:14:26;97760.03;;;19.33;51.35
1371;BME280;14306;49.942;11.570;2022-07-05T00:16:55;97759.31;;;19.36;51.65
1371;BME280;14306;49.942;11.570;2022-07-05T00:19:23;97756.16;;;19.34;51.43
1371;BME280;14306;49.942;11.570;2022-07-05T00:21:51;97761.66;;;19.34;51.20
1371;BME280;14306;49.942;11.570;2022-07-05T00:24:20;97759.81;;;19.26;51.71
1371;BME280;14306;49.942;11.570;2022-07-05T00:26:48;97756.97;;;19.23;51.92
1371;BME280;14306;49.942;11.570;2022-07-05T00:29:16;97764.75;;;19.20;52.19
1371;BME280;14306;49.942;11.570;2022-07-05T00:31:44;97759.31;;;19.08;52.43
1371;BME280;14306;49.942;11.570;2022-07-05T00:34:14;97755.72;;;19.20;51.98
1371;BME280;14306;49.942;11.570;2022-07-05T00:36:42;97760.06;;;19.21;51.91
1371;BME280;14306;49.942;11.570;2022-07-05T00:39:11;97766.03;;;19.11;52.10
1371;BME280;14306;49.942;11.570;2022-07-05T00:41:39;97761.34;;;18.96;52.57
1371;BME280;14306;49.942;11.570;2022-07-05T00:44:08;97764.38;;;19.06;52.38
1371;BME280;14306;49.942;11.570;2022-07-05T00:46:38;97766.78;;;19.08;51.80
1371;BME280;14306;49.942;11.570;2022-07-05T00:49:06;97767.19;;;19.10;51.83
1371;BME280;14306;49.942;11.570;2022-07-05T00:51:37;97769.50;;;19.08;51.61
1371;BME280;14306;49.942;11.570;2022-07-05T00:54:26;97771.50;;;18.95;52.19
1371;BME280;14306;49.942;11.570;2022-07-05T00:56:54;97766.84;;;18.84;52.11
1371;BME280;14306;49.942;11.570;2022-07-05T00:59:25;97763.09;;;18.76;52.33
1371;BME280;14306;49.942;11.570;2022-07-05T01:01:53;97765.28;;;18.71;52.52
1371;BME280;14306;49.942;11.570;2022-07-05T01:04:21;97766.78;;;18.68;52.76
1371;BME280;14306;49.942;11.570;2022-07-05T01:06:52;97766.47;;;18.58;52.77
1371;BME280;14306;49.942;11.570;2022-07-05T01:09:21;97762.94;;;18.57;52.58
1371;BME280;14306;49.942;11.570;2022-07-05T01:11:50;97765.56;;;18.54;52.71
1371;BME280;14306;49.942;11.570;2022-07-05T01:14:21;97763.41;;;18.47;52.96
1371;BME280;14306;49.942;11.570;2022-07-05T01:16:50;97768.69;;;18.40;52.97
1371;BME280;14306;49.942;11.570;2022-07-05T01:19:19;97765.69;;;18.45;52.41
1371;BME280;14306;49.942;11.570;2022-07-05T01:21:51;97772.31;;;18.32;53.38
1371;BME280;14306;49.942;11.570;2022-07-05T01:24:21;97767.31;;;18.34;52.79
1371;BME280;14306;49.942;11.570;2022-07-05T01:26:50;97769.38;;;18.37;53.02
1371;BME280;14306;49.942;11.570;2022-07-05T01:29:19;97770.06;;;18.34;52.97
1371;BME280;14306;49.942;11.570;2022-07-05T01:31:47;97768.78;;;18.44;52.39
1371;BME280;14306;49.942;11.570;2022-07-05T01:34:15;97765.13;;;18.28;52.82
1371;BME280;14306;49.942;11.570;2022-07-05T01:36:43;97764.44;;;18.19;52.89
1371;BME280;14306;49.942;11.570;2022-07-05T01:39:11;97766.50;;;18.10;53.82
1371;BME280;14306;49.942;11.570;2022-07-05T01:41:41;97764.22;;;18.12;53.59
1371;BME280;14306;49.942;11.570;2022-07-05T01:44:10;97762.84;;;18.06;53.46
1371;BME280;14306;49.942;11.570;2022-07-05T01:46:40;97763.78;;;17.98;53.76
1371;BME280;14306;49.942;11.570;2022-07-05T01:49:10;97756.22;;;17.83;54.21
1371;BME280;14306;49.942;11.570;2022-07-05T01:51:43;97768.00;;;17.95;54.19
1371;BME280;14306;49.942;11.570;2022-07-05T01:54:12;97766.50;;;17.86;53.82
1371;BME280;14306;49.942;11.570;2022-07-05T01:56:42;97761.72;;;17.83;54.36
1371;BME280;14306;49.942;11.570;2022-07-05T01:59:11;97753.59;;;17.86;53.87
1371;BME280;14306;49.942;11.570;2022-07-05T02:01:40;97760.22;;;17.85;54.00
1371;BME280;14306;49.942;11.570;2022-07-05T02:04:09;97760.91;;;17.82;54.09
1371;BME280;14306;49.942;11.570;2022-07-05T02:06:38;97759.63;;;17.80;54.27
1371;BME280;14306;49.942;11.570;2022-07-05T02:09:06;97757.72;;;17.68;54.43
1371;BME280;14306;49.942;11.570;2022-07-05T02:11:35;97761.22;;;17.81;54.15
1371;BME280;14306;49.942;11.570;2022-07-05T02:14:05;97759.63;;;17.68;54.34
1371;BME280;14306;49.942;11.570;2022-07-05T02:16:33;97763.84;;;17.65;54.39
1371;BME280;14306;49.942;11.570;2022-07-05T02:19:01;97758.81;;;17.67;54.38
1371;BME280;14306;49.942;11.570;2022-07-05T02:21:29;97764.19;;;17.64;54.68
1371;BME280;14306;49.942;11.570;2022-07-05T02:23:57;97763.94;;;17.57;55.05
1371;BME280;14306;49.942;11.570;2022-07-05T02:26:29;97760.28;;;17.41;55.41
1371;BME280;14306;49.942;11.570;2022-07-05T02:28:57;97760.47;;;17.36;55.72
1371;BME280;14306;49.942;11.570;2022-07-05T02:31:27;97766.13;;;17.31;55.89
1371;BME280;14306;49.942;11.570;2022-07-05T02:33:55;97767.88;;;17.35;55.89
1371;BME280;14306;49.942;11.570;2022-07-05T02:36:25;97777.81;;;17.40;55.96
1371;BME280;14306;49.942;11.570;2022-07-05T02:38:53;97770.09;;;17.42;55.43
1371;BME280;14306;49.942;11.570;2022-07-05T02:41:21;97770.38;;;17.28;55.82
1371;BME280;14306;49.942;11.570;2022-07-05T02:43:49;97775.59;;;17.21;56.23
1371;BME280;14306;49.942;11.570;2022-07-05T02:46:19;97784.78;;;17.05;56.63
1371;BME280;14306;49.942;11.570;2022-07-05T02:48:50;97772.22;;;17.04;56.88
1371;BME280;14306;49.942;11.570;2022-07-05T02:51:24;97782.44;;;16.95;57.35
1371;BME280;14306;49.942;11.570;2022-07-05T02:53:52;97784.38;;;16.94;57.32
1371;BME280;14306;49.942;11.570;2022-07-05T02:56:20;97780.31;;;16.80;57.84
1371;BME280;14306;49.942;11.570;2022-07-05T02:58:48;97784.59;;;16.89;57.73
1371;BME280;14306;49.942;11.570;2022-07-05T03:01:16;97793.06;;;16.76;58.11
1371;BME280;14306;49.942;11.570;2022-07-05T03:03:45;97785.13;;;16.62;58.28
1371;BME280;14306;49.942;11.570;2022-07-05T03:06:14;97797.00;;;16.66;58.35
1371;BME280;14306;49.942;11.570;2022-07-05T03:08:42;97793.41;;;16.54;58.86
1371;BME280;14306;49.942;11.570;2022-07-05T03:11:11;97797.31;;;16.44;59.22
1371;BME280;14306;49.942;11.570;2022-07-05T03:13:39;97799.06;;;16.49;58.98
1371;BME280;14306;49.942;11.570;2022-07-05T03:16:07;97800.34;;;16.51;58.76
1371;BME280;14306;49.942;11.570;2022-07-05T03:18:35;97803.00;;;16.60;58.45
1371;BME280;14306;49.942;11.570;2022-07-05T03:21:03;97797.66;;;16.43;58.81
1371;BME280;14306;49.942;11.570;2022-07-05T03:23:33;97802.75;;;16.53;58.76
1371;BME280;14306;49.942;11.570;2022-07-05T03:26:01;97807.59;;;16.47;59.02
1371;BME280;14306;49.942;11.570;2022-07-05T03:28:29;97809.72;;;16.42;59.16
1371;BME280;14306;49.942;11.570;2022-07-05T03:30:57;97814.41;;;16.33;59.26
1371;BME280;14306;49.942;11.570;2022-07-05T03:33:25;97814.47;;;16.24;59.59
1371;BME280;14306;49.942;11.570;2022-07-05T03:35:55;97818.25;;;16.11;60.00
1371;BME280;14306;49.942;11.570;2022-07-05T03:38:23;97817.06;;;16.21;59.86
1371;BME280;14306;49.942;11.570;2022-07-05T03:40:53;97820.75;;;16.25;59.88
1371;BME280;14306;49.942;11.570;2022-07-05T03:43:21;97829.78;;;16.17;60.40
1371;BME280;14306;49.942;11.570;2022-07-05T03:45:49;97838.84;;;16.38;60.06
1371;BME280;14306;49.942;11.570;2022-07-05T03:48:32;97838.84;;;16.38;59.72
1371;BME280;14306;49.942;11.570;2022-07-05T03:51:08;97846.22;;;16.37;59.87
1371;BME280;14306;49.942;11.570;2022-07-05T03:53:36;97839.97;;;16.66;59.56
1371;BME280;14306;49.942;11.570;2022-07-05T03:56:05;97837.53;;;17.79;58.33
1371;BME280;14306;49.942;11.570;2022-07-05T03:58:33;97838.91;;;19.33;54.07
1371;BME280;14306;49.942;11.570;2022-07-05T04:01:01;97835.09;;;20.73;50.57
1371;BME280;14306;49.942;11.570;2022-07-05T04:03:29;97839.97;;;21.52;46.31
1371;BME280;14306;49.942;11.570;2022-07-05T04:05:57;97831.13;;;22.04;44.79
1371;BME280;14306;49.942;11.570;2022-07-05T04:08:25;97841.19;;;22.64;43.56
1371;BME280;14306;49.942;11.570;2022-07-05T04:10:53;97840.22;;;23.31;41.96
1371;BME280;14306;49.942;11.570;2022-07-05T04:13:22;97841.66;;;23.91;40.50
1371;BME280;14306;49.942;11.570;2022-07-05T04:15:50;97837.00;;;24.86;38.89
1371;BME280;14306;49.942;11.570;2022-07-05T04:18:19;97848.75;;;24.65;39.06
1371;BME280;14306;49.942;11.570;2022-07-05T04:20:47;97840.47;;;24.72;38.27
1371;BME280;14306;49.942;11.570;2022-07-05T04:23:15;97842.03;;;25.31;36.76
1371;BME280;14306;49.942;11.570;2022-07-05T04:25:43;97836.25;;;25.71;35.84
1371;BME280;14306;49.942;11.570;2022-07-05T04:28:11;97843.53;;;26.49;35.29
1371;BME280;14306;49.942;11.570;2022-07-05T04:30:41;97839.84;;;27.43;33.27
1371;BME280;14306;49.942;11.570;2022-07-05T04:33:08;97844.09;;;27.69;32.41
1371;BME280;14306;49.942;11.570;2022-07-05T04:35:36;97841.09;;;28.11;31.84
1371;BME280;14306;49.942;11.570;2022-07-05T04:38:04;97844.25;;;28.16;30.89
1371;BME280;14306;49.942;11.570;2022-07-05T04:40:32;97845.88;;;28.65;30.54
1371;BME280;14306;49.942;11.570;2022-07-05T04:43:00;97845.00;;;28.75;30.53
1371;BME280;14306;49.942;11.570;2022-07-05T04:45:28;97850.28;;;29.10;30.26
1371;BME280;14306;49.942;11.570;2022-07-05T04:47:57;97854.91;;;28.32;31.29
1371;BME280;14306;49.942;11.570;2022-07-05T04:50:25;97844.84;;;29.67;29.84
1371;BME280;14306;49.942;11.570;2022-07-05T04:52:54;97847.38;;;30.67;27.96
1371;BME280;14306;49.942;11.570;2022-07-05T04:55:22;97856.44;;;29.95;28.77
1371;BME280;14306;49.942;11.570;2022-07-05T04:57:50;97844.97;;;30.43;28.81
1371;BME280;14306;49.942;11.570;2022-07-05T05:00:17;97851.13;;;30.34;28.27
1371;BME280;14306;49.942;11.570;2022-07-05T05:02:45;97852.47;;;31.18;27.76
1371;BME280;14306;49.942;11.570;2022-07-05T05:05:14;97856.28;;;31.08;27.57
1371;BME280;14306;49.942;11.570;2022-07-05T05:07:43;97854.28;;;31.71;26.49
1371;BME280;14306;49.942;11.570;2022-07-05T05:10:11;97852.41;;;31.84;26.60
1371;BME280;14306;49.942;11.570;2022-07-05T05:12:39;97849.06;;;33.08;24.88
1371;BME280;14306;49.942;11.570;2022-07-05T05:15:08;97855.50;;;33.66;24.48
1371;BME280;14306;49.942;11.570;2022-07-05T05:17:37;97848.00;;;34.66;23.19
1371;BME280;14306;49.942;11.570;2022-07-05T05:20:09;97850.47;;;35.58;22.26
1371;BME280;14306;49.942;11.570;2022-07-05T05:22:39;97855.34;;;35.79;21.52
1371;BME280;14306;49.942;11.570;2022-07-05T05:25:11;97858.50;;;35.81;21.64
1371;BME280;14306;49.942;11.570;2022-07-05T05:27:43;97861.06;;;34.35;23.01
1371;BME280;14306;49.942;11.570;2022-07-05T05:30:20;97855.03;;;37.17;20.93
1371;BME280;14306;49.942;11.570;2022-07-05T05:32:59;97863.06;;;37.45;20.46
1371;BME280;14306;49.942;11.570;2022-07-05T05:35:35;97863.84;;;37.19;19.45
1371;BME280;14306;49.942;11.570;2022-07-05T05:38:12;97860.69;;;37.89;19.40
1371;BME280;14306;49.942;11.570;2022-07-05T05:40:42;97866.19;;;37.20;19.91
1371;BME280;14306;49.942;11.570;2022-07-05T05:43:11;97870.72;;;38.67;18.53
1371;BME280;14306;49.942;11.570;2022-07-05T05:45:39;97872.22;;;38.45;18.53
1371;BME280;14306;49.942;11.570;2022-07-05T05:48:07;97876.59;;;38.88;18.28
1371;BME280;14306;49.942;11.570;2022-07-05T05:50:37;97876.03;;;38.33;18.24
1371;BME280;14306;49.942;11.570;2022-07-05T05:53:07;97884.28;;;38.63;18.61
1371;BME280;14306;49.942;11.570;2022-07-05T05:55:37;97875.03;;;38.96;18.09
1371;BME280;14306;49.942;11.570;2022-07-05T05:58:11;97872.97;;;40.83;16.37
1371;BME280;14306;49.942;11.570;2022-07-05T06:00:40;97873.31;;;40.27;16.66
1371;BME280;14306;49.942;11.570;2022-07-05T06:03:09;97880.38;;;40.46;17.08
1371;BME280;14306;49.942;11.570;2022-07-05T06:05:37;97885.75;;;40.15;17.16
1371;BME280;14306;49.942;11.570;2022-07-05T06:08:06;97887.50;;;38.38;17.93
1371;BME280;14306;49.942;11.570;2022-07-05T06:10:35;97882.88;;;39.24;17.81
1371;BME280;14306;49.942;11.570;2022-07-05T06:13:05;97880.78;;;41.22;16.16
1371;BME280;14306;49.942;11.570;2022-07-05T06:15:32;97879.09;;;40.61;17.04
1371;BME280;14306;49.942;11.570;2022-07-05T06:18:00;97882.78;;;39.80;17.40
1371;BME280;14306;49.942;11.570;2022-07-05T06:20:29;97877.19;;;42.08;15.74
1371;BME280;14306;49.942;11.570;2022-07-05T06:22:58;97880.94;;;41.53;15.83
1371;BME280;14306;49.942;11.570;2022-07-05T06:25:29;97879.66;;;40.80;16.69
1371;BME280;14306;49.942;11.570;2022-07-05T06:27:58;97875.84;;;42.29;15.59
1371;BME280;14306;49.942;11.570;2022-07-05T06:30:28;97884.72;;;40.90;16.06
1371;BME280;14306;49.942;11.570;2022-07-05T06:32:57;97882.44;;;40.31;16.39
1371;BME280;14306;49.942;11.570;2022-07-05T06:35:26;97889.84;;;40.57;16.60
1371;BME280;14306;49.942;11.570;2022-07-05T06:37:57;97877.91;;;40.53;16.34
1371;BME280;14306;49.942;11.570;2022-07-05T06:40:26;97876.72;;;39.87;17.20
1371;BME280;14306;49.942;11.570;2022-07-05T06:42:58;97878.66;;;42.85;15.06
1371;BME280;14306;49.942;11.570;2022-07-05T06:45:27;97877.97;;;41.63;15.58
1371;BME280;14306;49.942;11.570;2022-07-05T06:47:56;97884.13;;;40.86;16.35
1371;BME280;14306;49.942;11.570;2022-07-05T06:50:25;97873.66;;;40.78;16.26
1371;BME280;14306;49.942;11.570;2022-07-05T06:52:54;97870.03;;;41.12;15.90
1371;BME280;14306;49.942;11.570;2022-07-05T06:55:24;97869.56;;;39.92;16.76
1371;BME280;14306;49.942;11.570;2022-07-05T06:58:01;97869.69;;;40.41;16.45
1371;BME280;14306;49.942;11.570;2022-07-05T07:00:38;97866.34;;;41.26;16.01
1371;BME280;14306;49.942;11.570;2022-07-05T07:03:26;97876.19;;;42.36;15.06
1371;BME280;14306;49.942;11.570;2022-07-05T07:06:16;97868.28;;;42.00;14.52
1371;BME280;14306;49.942;11.570;2022-07-05T07:08:56;97874.03;;;43.30;14.10
1371;BME280;14306;49.942;11.570;2022-07-05T07:11:42;97872.50;;;42.30;14.51
1371;BME280;14306;49.942;11.570;2022-07-05T07:14:16;97875.81;;;40.83;16.24
1371;BME280;14306;49.942;11.570;2022-07-05T07:16:44;97882.88;;;39.24;17.27
1371;BME280;14306;49.942;11.570;2022-07-05T07:19:13;97876.72;;;41.09;15.55
1371;BME280;14306;49.942;11.570;2022-07-05T07:21:42;97882.16;;;42.38;15.41
1371;BME280;14306;49.942;11.570;2022-07-05T07:24:10;97880.72;;;43.21;14.28
1371;BME280;14306;49.942;11.570;2022-07-05T07:26:39;97891.59;;;43.65;14.06
1371;BME280;14306;49.942;11.570;2022-07-05T07:29:26;97889.22;;;44.66;13.27
1371;BME280;14306;49.942;11.570;2022-07-05T07:31:54;97887.59;;;45.04;13.34
1371;BME280;14306;49.942;11.570;2022-07-05T07:34:23;97887.56;;;43.99;14.05
1371;BME280;14306;49.942;11.570;2022-07-05T07:36:51;97886.56;;;44.24;14.13
1371;BME280;14306;49.942;11.570;2022-07-05T07:39:19;97887.56;;;40.90;15.74
1371;BME280;14306;49.942;11.570;2022-07-05T07:41:46;97877.81;;;40.62;16.82
1371;BME280;14306;49.942;11.570;2022-07-05T07:44:15;97886.41;;;39.57;17.39
1371;BME280;14306;49.942;11.570;2022-07-05T07:46:44;97877.03;;;41.31;16.20
1371;BME280;14306;49.942;11.570;2022-07-05T07:49:13;97884.59;;;42.82;14.96
1371;BME280;14306;49.942;11.570;2022-07-05T07:51:41;97882.75;;;41.77;16.44
1371;BME280;14306;49.942;11.570;2022-07-05T07:54:09;97886.38;;;41.51;15.45
1371;BME280;14306;49.942;11.570;2022-07-05T07:56:38;97893.59;;;38.04;18.37
1371;BME280;14306;49.942;11.570;2022-07-05T07:59:06;97881.25;;;40.37;16.92
1371;BME280;14306;49.942;11.570;2022-07-05T08:01:33;97881.56;;;43.38;15.34
1371;BME280;14306;49.942;11.570;2022-07-05T08:04:12;97874.03;;;45.32;13.85
1371;BME280;14306;49.942;11.570;2022-07-05T08:06:41;97876.63;;;41.03;15.97
1371;BME280;14306;49.942;11.570;2022-07-05T08:09:09;97872.44;;;40.84;16.38
1371;BME280;14306;49.942;11.570;2022-07-05T08:11:42;97876.81;;;43.72;13.72
1371;BME280;14306;49.942;11.570;2022-07-05T08:14:10;97883.09;;;42.55;14.50
1371;BME280;14306;49.942;11.570;2022-07-05T08:16:38;97878.56;;;42.18;14.56
1371;BME280;14306;49.942;11.570;2022-07-05T08:19:15;97878.34;;;43.67;13.93
1371;BME280;14306;49.942;11.570;2022-07-05T08:22:00;97873.31;;;44.54;13.55
1371;BME280;14306;49.942;11.570;2022-07-05T08:24:28;97877.63;;;42.88;14.28
1371;BME280;14306;49.942;11.570;2022-07-05T08:26:56;97873.00;;;43.38;13.78
1371;BME280;14306;49.942;11.570;2022-07-05T08:29:25;97874.31;;;44.01;13.14
1371;BME280;14306;49.942;11.570;2022-07-05T08:31:53;97872.53;;;44.98;12.90
1371;BME280;14306;49.942;11.570;2022-07-05T08:34:22;97879.25;;;42.07;13.93
1371;BME280;14306;49.942;11.570;2022-07-05T08:36:51;97866.16;;;42.77;12.58
1371;BME280;14306;49.942;11.570;2022-07-05T08:39:21;97869.81;;;40.81;14.82
1371;BME280;14306;49.942;11.570;2022-07-05T08:41:51;97865.44;;;40.65;14.70
1371;BME280;14306;49.942;11.570;2022-07-05T08:44:22;97869.25;;;41.11;14.02
1371;BME280;14306;49.942;11.570;2022-07-05T08:46:51;97870.72;;;41.62;13.78
1371;BME280;14306;49.942;11.570;2022-07-05T08:49:23;97857.75;;;40.22;14.23
1371;BME280;14306;49.942;11.570;2022-07-05T08:51:52;97863.31;;;40.02;15.38
1371;BME280;14306;49.942;11.570;2022-07-05T08:54:22;97864.78;;;37.25;17.00
1371;BME280;14306;49.942;11.570;2022-07-05T08:56:51;97861.72;;;42.14;14.19
1371;BME280;14306;49.942;11.570;2022-07-05T08:59:38;97861.13;;;39.83;15.22
1371;BME280;14306;49.942;11.570;2022-07-05T09:02:10;97860.28;;;42.92;13.13
1371;BME280;14306;49.942;11.570;2022-07-05T09:04:43;97860.78;;;42.54;13.04
1371;BME280;14306;49.942;11.570;2022-07-05T09:07:16;97856.31;;;39.74;15.10
1371;BME280;14306;49.942;11.570;2022-07-05T09:09:47;97858.69;;;42.54;12.69
1371;BME280;14306;49.942;11.570;2022-07-05T09:12:20;97856.34;;;41.96;13.66
1371;BME280;14306;49.942;11.570;2022-07-05T09:14:53;97855.28;;;40.44;14.76
1371;BME280;14306;49.942;11.570;2022-07-05T09:17:21;97868.25;;;38.93;14.69
1371;BME280;14306;49.942;11.570;2022-07-05T09:20:12;97864.66;;;38.42;14.57
1371;BME280;14306;49.942;11.570;2022-07-05T09:22:45;97850.88;;;40.00;13.92
1371;BME280;14306;49.942;11.570;2022-07-05T09:25:15;97856.16;;;42.05;13.40
1371;BME280;14306;49.942;11.570;2022-07-05T09:27:48;97860.34;;;38.97;14.64
1371;BME280;14306;49.942;11.570;2022-07-05T09:30:27;97848.81;;;40.15;13.54
1371;BME280;14306;49.942;11.570;2022-07-05T09:33:07;97848.38;;;41.34;13.44
1371;BME280;14306;49.942;11.570;2022-07-05T09:35:37;97849.50;;;42.14;13.40
1371;BME280;14306;49.942;11.570;2022-07-05T09:38:16;97861.31;;;37.48;16.38
1371;BME280;14306;49.942;11.570;2022-07-05T09:40:48;97852.63;;;40.90;14.31
1371;BME280;14306;49.942;11.570;2022-07-05T09:43:18;97862.44;;;37.59;15.91
1371;BME280;14306;49.942;11.570;2022-07-05T09:45:54;97849.44;;;40.82;13.89
1371;BME280;14306;49.942;11.570;2022-07-05T09:48:23;97856.63;;;37.45;16.57
1371;BME280;14306;49.942;11.570;2022-07-05T09:51:07;97847.16;;;40.23;14.81
1371;BME280;14306;49.942;11.570;2022-07-05T09:53:58;97852.25;;;40.19;14.46
1371;BME280;14306;49.942;11.570;2022-07-05T09:56:30;97839.38;;;41.62;13.61
1371;BME280;14306;49.942;11.570;2022-07-05T09:59:19;97843.25;;;41.38;13.00
1371;BME280;14306;49.942;11.570;2022-07-05T10:01:50;97860.16;;;41.67;13.56
1371;BME280;14306;49.942;11.570;2022-07-05T10:04:18;97854.13;;;40.36;13.68
1371;BME280;14306;49.942;11.570;2022-07-05T10:06:50;97852.09;;;40.71;13.40
1371;BME280;14306;49.942;11.570;2022-07-05T10:09:20;97862.78;;;37.70;16.05
1371;BME280;14306;49.942;11.570;2022-07-05T10:11:50;97861.31;;;38.02;16.04
1371;BME280;14306;49.942;11.570;2022-07-05T10:14:19;97865.22;;;35.62;17.65
1371;BME280;14306;49.942;11.570;2022-07-05T10:16:57;97860.59;;;36.81;16.76
1371;BME280;14306;49.942;11.570;2022-07-05T10:19:31;97856.44;;;35.59;17.49
1371;BME280;14306;49.942;11.570;2022-07-05T10:22:07;97850.19;;;36.29;17.14
1371;BME280;14306;49.942;11.570;2022-07-05T10:24:45;97860.31;;;35.96;17.60
1371;BME280;14306;49.942;11.570;2022-07-05T10:27:18;97856.44;;;33.75;19.94
1371;BME280;14306;49.942;11.570;2022-07-05T10:29:48;97847.97;;;34.79;19.41
1371;BME280;14306;49.942;11.570;2022-07-05T10:32:18;97859.72;;;34.65;19.58
1371;BME280;14306;49.942;11.570;2022-07-05T10:34:47;97848.75;;;37.85;16.62
1371;BME280;14306;49.942;11.570;2022-07-05T10:37:25;97846.75;;;40.01;15.24
1371;BME280;14306;49.942;11.570;2022-07-05T10:39:56;97855.50;;;39.12;15.53
1371;BME280;14306;49.942;11.570;2022-07-05T10:42:26;97845.56;;;41.40;13.99
1371;BME280;14306;49.942;11.570;2022-07-05T10:44:58;97844.13;;;41.70;13.88
1371;BME280;14306;49.942;11.570;2022-07-05T10:47:30;97855.78;;;35.55;18.24
1371;BME280;14306;49.942;11.570;2022-07-05T10:50:02;97857.72;;;37.29;16.35
1371;BME280;14306;49.942;11.570;2022-07-05T10:52:32;97852.53;;;37.28;16.37
1371;BME280;14306;49.942;11.570;2022-07-05T10:55:22;97856.84;;;34.02;18.94
1371;BME280;14306;49.942;11.570;2022-07-05T10:58:19;97851.63;;;32.19;20.66
1371;BME280;14306;49.942;11.570;2022-07-05T11:00:48;97832.72;;;34.42;19.27
1371;BME280;14306;49.942;11.570;2022-07-05T11:03:37;97845.13;;;37.30;16.82
1371;BME280;14306;49.942;11.570;2022-07-05T11:06:06;97833.66;;;37.07;16.53
1371;BME280;14306;49.942;11.570;2022-07-05T11:09:15;97839.75;;;33.68;19.46
1371;BME280;14306;49.942;11.570;2022-07-05T11:11:45;97844.84;;;33.73;19.63
1371;BME280;14306;49.942;11.570;2022-07-05T11:14:35;97827.84;;;36.53;17.53
1371;BME280;14306;49.942;11.570;2022-07-05T11:17:18;97842.47;;;37.27;16.57
1371;BME280;14306;49.942;11.570;2022-07-05T11:20:16;97847.06;;;32.93;19.74
1371;BME280;14306;49.942;11.570;2022-07-05T11:23:09;97847.19;;;33.34;20.12
1371;BME280;14306;49.942;11.570;2022-07-05T11:25:40;97853.91;;;31.49;21.74
1371;BME280;14306;49.942;11.570;2022-07-05T11:28:16;97841.84;;;31.10;21.95
1371;BME280;14306;49.942;11.570;2022-07-05T11:30:55;97832.66;;;32.59;21.21
1371;BME280;14306;49.942;11.570;2022-07-05T11:33:36;97843.44;;;32.08;21.59
1371;BME280;14306;49.942;11.570;2022-07-05T11:36:06;97830.16;;;34.94;18.69
1371;BME280;14306;49.942;11.570;2022-07-05T11:39:07;97828.28;;;34.41;18.98
1371;BME280;14306;49.942;11.570;2022-07-05T11:41:42;97833.00;;;31.34;21.85
1371;BME280;14306;49.942;11.570;2022-07-05T11:44:10;97833.50;;;30.07;22.81
1371;BME280;14306;49.942;11.570;2022-07-05T11:46:41;97840.56;;;29.59;24.01
1371;BME280;14306;49.942;11.570;2022-07-05T11:49:19;97832.97;;;29.59;23.52
1371;BME280;14306;49.942;11.570;2022-07-05T11:51:58;97833.09;;;30.85;22.63
1371;BME280;14306;49.942;11.570;2022-07-05T11:54:28;97822.53;;;33.54;20.68
1371;BME280;14306;49.942;11.570;2022-07-05T11:56:58;97822.25;;;33.20;20.65
1371;BME280;14306;49.942;11.570;2022-07-05T11:59:27;97825.88;;;31.88;20.79
1371;BME280;14306;49.942;11.570;2022-07-05T12:01:55;97821.34;;;32.30;20.77
1371;BME280;14306;49.942;11.570;2022-07-05T12:04:24;97816.59;;;32.75;20.95
1371;BME280;14306;49.942;11.570;2022-07-05T12:06:53;97812.81;;;33.26;20.71
1371;BME280;14306;49.942;11.570;2022-07-05T12:09:24;97817.78;;;33.92;19.98
1371;BME280;14306;49.942;11.570;2022-07-05T12:11:53;97821.78;;;33.37;20.38
1371;BME280;14306;49.942;11.570;2022-07-05T12:14:48;97818.91;;;33.53;20.33
1371;BME280;14306;49.942;11.570;2022-07-05T12:17:18;97808.81;;;34.09;19.49
1371;BME280;14306;49.942;11.570;2022-07-05T12:19:53;97806.53;;;33.92;19.82
1371;BME280;14306;49.942;11.570;2022-07-05T12:22:29;97810.91;;;32.47;21.15
1371;BME280;14306;49.942;11.570;2022-07-05T12:24:58;97804.69;;;32.39;21.88
1371;BME280;14306;49.942;11.570;2022-07-05T12:27:26;97811.72;;;32.11;21.82
1371;BME280;14306;49.942;11.570;2022-07-05T12:29:56;97807.50;;;31.87;21.47
1371;BME280;14306;49.942;11.570;2022-07-05T12:32:25;97808.56;;;32.25;21.64
1371;BME280;14306;49.942;11.570;2022-07-05T12:34:53;97819.44;;;32.59;21.29
1371;BME280;14306;49.942;11.570;2022-07-05T12:37:25;97812.84;;;32.33;21.40
1371;BME280;14306;49.942;11.570;2022-07-05T12:40:03;97816.44;;;31.20;23.31
1371;BME280;14306;49.942;11.570;2022-07-05T12:42:32;97815.38;;;31.92;22.71
1371;BME280;14306;49.942;11.570;2022-07-05T12:45:12;97804.88;;;30.26;23.46
1371;BME280;14306;49.942;11.570;2022-07-05T12:47:49;97805.16;;;29.79;24.16
1371;BME280;14306;49.942;11.570;2022-07-05T12:50:17;97798.75;;;30.84;23.54
1371;BME280;14306;49.942;11.570;2022-07-05T12:53:00;97796.75;;;31.04;22.98
1371;BME280;14306;49.942;11.570;2022-07-05T12:55:49;97800.50;;;30.75;23.36
1371;BME280;14306;49.942;11.570;2022-07-05T12:58:45;97801.34;;;30.72;22.72
1371;BME280;14306;49.942;11.570;2022-07-05T13:01:26;97797.13;;;30.60;22.64
1371;BME280;14306;49.942;11.570;2022-07-05T13:03:56;97802.06;;;30.00;23.19
1371;BME280;14306;49.942;11.570;2022-07-05T13:06:39;97793.75;;;30.23;23.57
1371;BME280;14306;49.942;11.570;2022-07-05T13:09:07;97784.78;;;30.58;23.21
1371;BME280;14306;49.942;11.570;2022-07-05T13:11:35;97790.28;;;29.59;24.09
1371;BME280;14306;49.942;11.570;2022-07-05T13:14:03;97792.75;;;29.19;25.38
1371;BME280;14306;49.942;11.570;2022-07-05T13:16:33;97794.81;;;30.55;24.11
1371;BME280;14306;49.942;11.570;2022-07-05T13:19:11;97790.03;;;30.79;23.83
1371;BME280;14306;49.942;11.570;2022-07-05T13:21:39;97787.81;;;31.32;23.21
1371;BME280;14306;49.942;11.570;2022-07-05T13:24:07;97788.91;;;30.96;23.62